Orwell, OH (44076)

5:59 AM EDT on March 23, 2017 (GMT -0400)
Grand Valley | | Change Station

Elev 807 ft 41.55 °N, 80.88 °W | Updated 33 seconds ago

Clear
Clear
12.6 °F
Feels Like 13 °F
N
0.0
Wind Variable Wind from SE

Today
High -- | Low -- °F
--% Chance of Precip.
Yesterday
High -- | Low -- °F
Precip. -- in
Pressure 30.59 in
Visibility 10.0 miles
Clouds Clear
Windchill 13 °F
Dew Point 10 °F
Humidity 87%
Rainfall 0.00 in
Snow Depth Not available.
7:21 AM 7:39 PM
Waning Crescent, 24% visible
METAR KHZY 230953Z AUTO 00000KT 10SM CLR M08/M10 A3055 RMK AO2 SLP359 I1000 T10831100 TSNO
Pressure 30.59 in
Visibility 10.0 miles
Clouds Clear
Windchill 13 °F
Dew Point 10 °F
Humidity 87%
Rainfall 0.00 in
Snow Depth Not available.
7:21 AM 7:39 PM
Waning Crescent, 24% visible
METAR KHZY 230953Z AUTO 00000KT 10SM CLR M08/M10 A3055 RMK AO2 SLP359 I1000 T10831100 TSNO

Get Severe Weather Alerts

Thanks for signing up!

Be on the lookout for a verification email in your inbox.

You'll start receiving the daily forecast at 8 AM.

×

10-Day Weather Forecast

Almanac

Astronomy

Mar. 23, 2017 Rise Set
Actual Time
Civil Twilight
Nautical Twilight
Astronomical Twilight
Moon
Length of Visible Light
Length of Day
Tomorrow will be .
, % of the Moon is Illuminated

Today's Extremes

State Highs State Lows

Community

WunderPhotos

Upload Photos

1,962,540 photos uploaded!

WunderBlog® & News

Nearby

Air Quality

  Air Quality AQ Index Pollutant
Not available.

Snow Depth

Station Depth Elevation

Earthquake Activity

City Distance Mag. Time & Date
Minimum magnitude displayed is 2.5.

Earthquake Activity

City Distance Mag. Time & Date
Minimum magnitude displayed is 2.5.

Coastal Water Temperatures

Place Temperature

Stations

Nearby Weather Stations

Station Location Temp. Windchill Dew Point Humidity Wind Precip. Elev Updated Type
                   

Watches & Warnings

There are currently no watches in effect.